Yazd, Iran

8:37 AM IRDT on September 18, 2014 (GMT +0430)
Shahid Sadooghi | Change Station
CLOSE
Current Station
Airport
Location: Yazd,
Elevation: 4058 ft
Nearby Weather Stations

Elev 4058 ft 31.90 °N, 54.28 °E | Updated 7 minutes ago

Clear
Clear
77 °F
Feels Like 77 °F
N
2
Wind Variable Wind from SSW

Today
High -- | Low -- °F
--% Chance of Precip.
Yesterday
High -- | Low -- °F
Precip. -- in
6:38 AM 6:55 PM
Waning Crescent, 30% visible
Pressure 30.04 in
Visibility -9999.0 miles
Clouds
Dew Point 18 °F
Humidity 11%
Rainfall 0.00 in
Snow Depth Not available.
UV Not available.
Pollen Not available.
Air Quality Not available.
Flu Activity Not available.
METAR OIYY 180400Z 21002KT CAVOK 25/M08 Q1017

More Conditions Fewer Conditions

Pressure 30.04 in
Visibility -9999.0 miles
Clouds
Dew Point 18 °F
Humidity 11%
Rainfall 0.00 in
Snow Depth Not available.
UV Not available.
Pollen Not available.
Air Quality Not available.
Flu Activity Not available.
METAR OIYY 180400Z 21002KT CAVOK 25/M08 Q1017

More Conditions Fewer Conditions

10-Day Weather Forecast

Almanac

Astronomy

Sep. 18, 2014 Rise Set
Actual Time 6:38 AM IRDT 6:55 PM IRDT
Civil Twilight 6:14 AM IRDT 7:19 PM IRDT
Nautical Twilight 5:45 AM IRDT 7:48 PM IRDT
Astronomical Twilight 5:16 AM IRDT 8:17 PM IRDT
Moon 1:23 AM IRDT 3:16 PM IRDT
Length of Visible Light 13h 05m
Length of Day
12h 16m
Tomorrow will be 1m 56s shorter.
Waning Crescent, 30% of the Moon is Illuminated
Today
Waning Crescent
Sep 24
New
Oct 1
First Quarter
Oct 8
Full
Oct 15
Last Quarter

Yesterday's Extremes

Country Highs Country Lows

Community

WunderPhotos

Upload Photos

1,754,291 photos uploaded!

Nearby

Snow Depth

Not available.

Earthquake Activity

City Distance Mag. Time & Date
No recent earthquake activity has been reported nearby.
Minimum magnitude displayed is 2.5.

Coastal Water Temperatures

Place Temperature
No Stations Reporting

Nearby Weather Stations